GMMW

Nador International Airport

Nador, Morocco
METAR GMMW 170000Z 21002KT 9999 FEW017 SCT030 11/11 Q1022 NOSIG
Observed Flight Rules
Dec-17 @ 00:00 UTC (33 minutes ago) Visual Flight Rules
Wind Visibility Clouds
210° at 2 knots 10,000+ meters
  • Few at 1,700' AGL
  • Scattered at 3,000' AGL
Temperatures Readings
Current 11°C / 52°F
Dewpoint 11°C / 52°F
Humidity 100%
Altimeter 30.18" Hg
Pressure 1022 hPa
Elevation 175
METAR GMMW 170000Z 21002KT 9999 FEW017 SCT030 11/11 Q1022 NOSIG
Observed Flight Rules
Dec-17 @ 00:00 UTC
(33 minutes ago)
VFR
Wind Visibility
210° at 2 knots 10,000+ meters
Clouds
  • Few at 1,700' AGL
  • Scattered at 3,000' AGL
Temperature Dewpoint
11°C / 52°F 11°C / 52°F
Humidity Altimeter Pressure
100% 30.18" Hg 1022 hPa